Frazier, North Dakota
Current Conditions -  °F | °C
As of 10:56 AM on Friday 24 Oct 2014 (Local Time) from KJMS Reporting Station
Clear Clear  
Wind Chill: 59°   Ceiling: Unl
Heat Index: 59°   Visibility: 10mi
Dew Point: 38°   Wind: 8mph
Humidity: 46%   Direction: 260°W
Pressure: 29.83"   Gusts: NA
Location:  47.1102°N, 98.4039°W
Report Text: KJMS 241556Z AUTO 26007KT 10SM CLR 15/03 A2983 RMK AO2 SLP104 T01500033
Loading
Personal Weather Stations






























Interactive Weather Map
Tropical Storm Tracking
New forecast layout! Learn more

10-Day Weather Forecast

Advertisements
Track Severe Weather on mobile